sensor_id;sensor_type;location;lat;lon;timestamp;P1;durP1;ratioP1;P2;durP2;ratioP2
42096;SDS011;27754;45.414;11.084;2023-04-03T00:01:10;3.63;;;1.90;;
42096;SDS011;27754;45.414;11.084;2023-04-03T00:03:37;4.50;;;2.00;;
42096;SDS011;27754;45.414;11.084;2023-04-03T00:06:04;2.92;;;1.92;;
42096;SDS011;27754;45.414;11.084;2023-04-03T00:08:35;4.70;;;1.75;;
42096;SDS011;27754;45.414;11.084;2023-04-03T00:11:03;2.55;;;1.60;;
42096;SDS011;27754;45.414;11.084;2023-04-03T00:13:31;2.90;;;1.70;;
42096;SDS011;27754;45.414;11.084;2023-04-03T00:15:59;3.03;;;2.00;;
42096;SDS011;27754;45.414;11.084;2023-04-03T00:18:26;2.95;;;1.80;;
42096;SDS011;27754;45.414;11.084;2023-04-03T00:20:53;5.30;;;1.80;;
42096;SDS011;27754;45.414;11.084;2023-04-03T00:23:20;2.72;;;1.80;;
42096;SDS011;27754;45.414;11.084;2023-04-03T00:25:47;2.92;;;1.70;;
42096;SDS011;27754;45.414;11.084;2023-04-03T00:28:14;2.28;;;1.30;;
42096;SDS011;27754;45.414;11.084;2023-04-03T00:30:41;2.60;;;1.30;;
42096;SDS011;27754;45.414;11.084;2023-04-03T00:33:09;1.58;;;0.85;;
42096;SDS011;27754;45.414;11.084;2023-04-03T00:35:39;1.25;;;0.88;;
42096;SDS011;27754;45.414;11.084;2023-04-03T00:38:06;5.18;;;1.13;;
42096;SDS011;27754;45.414;11.084;2023-04-03T00:40:34;3.05;;;1.10;;
42096;SDS011;27754;45.414;11.084;2023-04-03T00:43:15;1.55;;;0.85;;
42096;SDS011;27754;45.414;11.084;2023-04-03T00:45:53;1.98;;;1.00;;
42096;SDS011;27754;45.414;11.084;2023-04-03T00:48:23;1.17;;;0.90;;
42096;SDS011;27754;45.414;11.084;2023-04-03T00:50:57;2.30;;;1.10;;
42096;SDS011;27754;45.414;11.084;2023-04-03T00:53:27;2.22;;;1.00;;
42096;SDS011;27754;45.414;11.084;2023-04-03T00:56:26;2.05;;;0.95;;
42096;SDS011;27754;45.414;11.084;2023-04-03T00:59:04;1.25;;;0.85;;
42096;SDS011;27754;45.414;11.084;2023-04-03T01:01:41;1.60;;;0.85;;
42096;SDS011;27754;45.414;11.084;2023-04-03T01:04:26;1.20;;;0.90;;
42096;SDS011;27754;45.414;11.084;2023-04-03T01:09:44;1.63;;;0.90;;
42096;SDS011;27754;45.414;11.084;2023-04-03T01:12:14;2.63;;;1.00;;
42096;SDS011;27754;45.414;11.084;2023-04-03T01:14:55;2.10;;;1.08;;
42096;SDS011;27754;45.414;11.084;2023-04-03T01:25:36;2.22;;;1.17;;
42096;SDS011;27754;45.414;11.084;2023-04-03T01:28:08;3.78;;;1.40;;
42096;SDS011;27754;45.414;11.084;2023-04-03T01:33:27;2.47;;;1.20;;
42096;SDS011;27754;45.414;11.084;2023-04-03T01:35:54;4.60;;;1.40;;
42096;SDS011;27754;45.414;11.084;2023-04-03T01:38:22;2.45;;;1.42;;
42096;SDS011;27754;45.414;11.084;2023-04-03T01:40:49;2.20;;;1.30;;
42096;SDS011;27754;45.414;11.084;2023-04-03T01:43:16;3.42;;;1.48;;
42096;SDS011;27754;45.414;11.084;2023-04-03T01:45:43;2.13;;;1.23;;
42096;SDS011;27754;45.414;11.084;2023-04-03T01:48:10;2.30;;;1.30;;
42096;SDS011;27754;45.414;11.084;2023-04-03T01:50:37;2.85;;;1.60;;
42096;SDS011;27754;45.414;11.084;2023-04-03T01:53:05;2.78;;;1.50;;
42096;SDS011;27754;45.414;11.084;2023-04-03T01:55:32;2.00;;;1.15;;
42096;SDS011;27754;45.414;11.084;2023-04-03T01:57:59;2.58;;;1.42;;
42096;SDS011;27754;45.414;11.084;2023-04-03T02:00:26;2.63;;;1.17;;
42096;SDS011;27754;45.414;11.084;2023-04-03T02:02:53;3.45;;;1.65;;
42096;SDS011;27754;45.414;11.084;2023-04-03T02:05:20;2.72;;;1.42;;
42096;SDS011;27754;45.414;11.084;2023-04-03T02:07:47;3.60;;;1.40;;
42096;SDS011;27754;45.414;11.084;2023-04-03T02:10:13;2.58;;;1.33;;
42096;SDS011;27754;45.414;11.084;2023-04-03T02:12:41;2.60;;;1.40;;
42096;SDS011;27754;45.414;11.084;2023-04-03T02:15:08;1.95;;;1.10;;
42096;SDS011;27754;45.414;11.084;2023-04-03T02:17:35;2.10;;;1.40;;
42096;SDS011;27754;45.414;11.084;2023-04-03T02:20:03;3.22;;;1.15;;
42096;SDS011;27754;45.414;11.084;2023-04-03T02:22:32;2.25;;;1.10;;
42096;SDS011;27754;45.414;11.084;2023-04-03T02:24:59;3.38;;;1.42;;
42096;SDS011;27754;45.414;11.084;2023-04-03T02:27:26;3.70;;;1.02;;
42096;SDS011;27754;45.414;11.084;2023-04-03T02:29:53;1.98;;;1.38;;
42096;SDS011;27754;45.414;11.084;2023-04-03T02:32:20;3.08;;;1.40;;
42096;SDS011;27754;45.414;11.084;2023-04-03T02:34:47;1.77;;;1.20;;
42096;SDS011;27754;45.414;11.084;2023-04-03T02:37:14;1.90;;;1.20;;
42096;SDS011;27754;45.414;11.084;2023-04-03T02:39:44;3.00;;;1.42;;
42096;SDS011;27754;45.414;11.084;2023-04-03T02:42:11;3.80;;;1.67;;
42096;SDS011;27754;45.414;11.084;2023-04-03T02:44:38;2.97;;;1.40;;
42096;SDS011;27754;45.414;11.084;2023-04-03T02:47:05;2.97;;;1.55;;
42096;SDS011;27754;45.414;11.084;2023-04-03T02:49:32;2.17;;;1.45;;
42096;SDS011;27754;45.414;11.084;2023-04-03T02:51:59;2.80;;;1.63;;
42096;SDS011;27754;45.414;11.084;2023-04-03T02:54:26;3.88;;;1.70;;
42096;SDS011;27754;45.414;11.084;2023-04-03T02:57:00;4.18;;;1.80;;
42096;SDS011;27754;45.414;11.084;2023-04-03T02:59:27;4.78;;;1.88;;
42096;SDS011;27754;45.414;11.084;2023-04-03T03:01:54;2.95;;;1.77;;
42096;SDS011;27754;45.414;11.084;2023-04-03T03:04:22;4.80;;;2.35;;
42096;SDS011;27754;45.414;11.084;2023-04-03T03:06:49;5.03;;;2.25;;
42096;SDS011;27754;45.414;11.084;2023-04-03T03:09:17;4.70;;;2.40;;
42096;SDS011;27754;45.414;11.084;2023-04-03T03:11:44;3.70;;;2.15;;
42096;SDS011;27754;45.414;11.084;2023-04-03T03:14:11;3.95;;;2.28;;
42096;SDS011;27754;45.414;11.084;2023-04-03T03:16:38;6.25;;;2.53;;
42096;SDS011;27754;45.414;11.084;2023-04-03T03:19:05;4.15;;;2.45;;
42096;SDS011;27754;45.414;11.084;2023-04-03T03:21:32;5.30;;;2.90;;
42096;SDS011;27754;45.414;11.084;2023-04-03T03:24:00;3.67;;;2.35;;
42096;SDS011;27754;45.414;11.084;2023-04-03T03:26:27;4.95;;;3.10;;
42096;SDS011;27754;45.414;11.084;2023-04-03T03:28:54;6.85;;;2.80;;
42096;SDS011;27754;45.414;11.084;2023-04-03T03:31:21;4.07;;;2.60;;
42096;SDS011;27754;45.414;11.084;2023-04-03T03:33:48;6.15;;;2.95;;
42096;SDS011;27754;45.414;11.084;2023-04-03T03:36:15;6.28;;;2.60;;
42096;SDS011;27754;45.414;11.084;2023-04-03T03:38:42;5.65;;;2.78;;
42096;SDS011;27754;45.414;11.084;2023-04-03T03:41:09;4.35;;;2.10;;
42096;SDS011;27754;45.414;11.084;2023-04-03T03:43:37;5.28;;;2.33;;
42096;SDS011;27754;45.414;11.084;2023-04-03T03:46:06;5.35;;;2.58;;
42096;SDS011;27754;45.414;11.084;2023-04-03T03:48:33;4.32;;;2.42;;
42096;SDS011;27754;45.414;11.084;2023-04-03T03:51:00;5.43;;;2.60;;
42096;SDS011;27754;45.414;11.084;2023-04-03T03:53:31;3.72;;;2.15;;
42096;SDS011;27754;45.414;11.084;2023-04-03T03:56:03;7.30;;;2.63;;
42096;SDS011;27754;45.414;11.084;2023-04-03T03:58:31;3.55;;;2.40;;
42096;SDS011;27754;45.414;11.084;2023-04-03T04:01:03;7.60;;;2.30;;
42096;SDS011;27754;45.414;11.084;2023-04-03T04:03:33;4.57;;;2.42;;
42096;SDS011;27754;45.414;11.084;2023-04-03T04:06:01;2.90;;;2.00;;
42096;SDS011;27754;45.414;11.084;2023-04-03T04:08:28;3.50;;;2.25;;
42096;SDS011;27754;45.414;11.084;2023-04-03T04:10:55;6.15;;;2.03;;
42096;SDS011;27754;45.414;11.084;2023-04-03T04:13:22;4.43;;;2.10;;
42096;SDS011;27754;45.414;11.084;2023-04-03T04:15:49;5.00;;;2.08;;
42096;SDS011;27754;45.414;11.084;2023-04-03T04:18:17;4.55;;;1.88;;
42096;SDS011;27754;45.414;11.084;2023-04-03T04:20:47;3.00;;;1.80;;
42096;SDS011;27754;45.414;11.084;2023-04-03T04:23:17;2.67;;;1.55;;
42096;SDS011;27754;45.414;11.084;2023-04-03T04:25:46;2.33;;;1.45;;
42096;SDS011;27754;45.414;11.084;2023-04-03T04:28:14;8.98;;;1.70;;
42096;SDS011;27754;45.414;11.084;2023-04-03T04:30:42;3.15;;;1.75;;
42096;SDS011;27754;45.414;11.084;2023-04-03T04:33:09;1.92;;;1.35;;
42096;SDS011;27754;45.414;11.084;2023-04-03T04:35:37;4.18;;;1.23;;
42096;SDS011;27754;45.414;11.084;2023-04-03T04:38:05;2.55;;;1.60;;
42096;SDS011;27754;45.414;11.084;2023-04-03T04:40:33;1.92;;;1.23;;
42096;SDS011;27754;45.414;11.084;2023-04-03T04:43:00;2.13;;;1.55;;
42096;SDS011;27754;45.414;11.084;2023-04-03T04:45:27;3.95;;;1.70;;
42096;SDS011;27754;45.414;11.084;2023-04-03T04:47:56;2.28;;;1.35;;
42096;SDS011;27754;45.414;11.084;2023-04-03T04:50:24;2.38;;;1.67;;
42096;SDS011;27754;45.414;11.084;2023-04-03T04:52:52;1.90;;;1.20;;
42096;SDS011;27754;45.414;11.084;2023-04-03T04:55:20;2.75;;;1.35;;
42096;SDS011;27754;45.414;11.084;2023-04-03T04:57:49;3.60;;;1.20;;
42096;SDS011;27754;45.414;11.084;2023-04-03T05:00:17;2.30;;;1.60;;
42096;SDS011;27754;45.414;11.084;2023-04-03T05:02:44;8.45;;;2.70;;
42096;SDS011;27754;45.414;11.084;2023-04-03T05:05:12;4.80;;;1.92;;
42096;SDS011;27754;45.414;11.084;2023-04-03T05:07:39;2.83;;;1.50;;
42096;SDS011;27754;45.414;11.084;2023-04-03T05:10:07;5.75;;;2.03;;
42096;SDS011;27754;45.414;11.084;2023-04-03T05:12:35;3.00;;;1.88;;
42096;SDS011;27754;45.414;11.084;2023-04-03T05:15:03;5.18;;;2.30;;
42096;SDS011;27754;45.414;11.084;2023-04-03T05:17:32;7.05;;;2.20;;
42096;SDS011;27754;45.414;11.084;2023-04-03T05:19:59;5.97;;;2.63;;
42096;SDS011;27754;45.414;11.084;2023-04-03T05:22:27;5.70;;;2.38;;
42096;SDS011;27754;45.414;11.084;2023-04-03T05:24:59;3.42;;;2.05;;
42096;SDS011;27754;45.414;11.084;2023-04-03T05:27:27;5.85;;;1.90;;
42096;SDS011;27754;45.414;11.084;2023-04-03T05:29:57;2.88;;;1.63;;
42096;SDS011;27754;45.414;11.084;2023-04-03T05:32:26;2.92;;;1.45;;
42096;SDS011;27754;45.414;11.084;2023-04-03T05:35:09;2.72;;;1.45;;
42096;SDS011;27754;45.414;11.084;2023-04-03T05:37:37;3.92;;;1.70;;
42096;SDS011;27754;45.414;11.084;2023-04-03T05:40:04;4.40;;;1.83;;
42096;SDS011;27754;45.414;11.084;2023-04-03T05:42:33;4.55;;;1.60;;
42096;SDS011;27754;45.414;11.084;2023-04-03T05:45:00;2.28;;;1.30;;
42096;SDS011;27754;45.414;11.084;2023-04-03T05:47:28;3.55;;;1.73;;
42096;SDS011;27754;45.414;11.084;2023-04-03T05:49:55;2.25;;;1.33;;
42096;SDS011;27754;45.414;11.084;2023-04-03T05:52:29;3.03;;;1.80;;
42096;SDS011;27754;45.414;11.084;2023-04-03T05:54:57;3.58;;;1.30;;
42096;SDS011;27754;45.414;11.084;2023-04-03T05:57:27;4.43;;;1.58;;
42096;SDS011;27754;45.414;11.084;2023-04-03T05:59:54;3.90;;;1.50;;
42096;SDS011;27754;45.414;11.084;2023-04-03T06:02:22;2.92;;;1.55;;
42096;SDS011;27754;45.414;11.084;2023-04-03T06:04:51;3.50;;;1.45;;
42096;SDS011;27754;45.414;11.084;2023-04-03T06:07:20;7.45;;;1.85;;
42096;SDS011;27754;45.414;11.084;2023-04-03T06:09:50;4.72;;;1.80;;
42096;SDS011;27754;45.414;11.084;2023-04-03T06:12:17;4.60;;;2.40;;
42096;SDS011;27754;45.414;11.084;2023-04-03T06:14:45;4.30;;;2.00;;
42096;SDS011;27754;45.414;11.084;2023-04-03T06:17:17;6.03;;;2.13;;
42096;SDS011;27754;45.414;11.084;2023-04-03T06:19:44;4.97;;;1.88;;
42096;SDS011;27754;45.414;11.084;2023-04-03T06:22:12;5.40;;;2.08;;
42096;SDS011;27754;45.414;11.084;2023-04-03T06:24:39;7.25;;;2.08;;
42096;SDS011;27754;45.414;11.084;2023-04-03T06:27:06;4.18;;;1.85;;
42096;SDS011;27754;45.414;11.084;2023-04-03T06:29:33;7.28;;;2.17;;
42096;SDS011;27754;45.414;11.084;2023-04-03T06:32:00;3.40;;;1.95;;
42096;SDS011;27754;45.414;11.084;2023-04-03T06:34:27;3.33;;;1.65;;
42096;SDS011;27754;45.414;11.084;2023-04-03T06:36:54;7.70;;;2.03;;
42096;SDS011;27754;45.414;11.084;2023-04-03T06:39:21;3.00;;;1.65;;
42096;SDS011;27754;45.414;11.084;2023-04-03T06:41:51;4.97;;;1.77;;
42096;SDS011;27754;45.414;11.084;2023-04-03T06:44:26;4.85;;;1.58;;
42096;SDS011;27754;45.414;11.084;2023-04-03T06:46:53;4.60;;;1.60;;
42096;SDS011;27754;45.414;11.084;2023-04-03T06:49:20;7.10;;;1.45;;
42096;SDS011;27754;45.414;11.084;2023-04-03T06:51:47;4.57;;;1.73;;
42096;SDS011;27754;45.414;11.084;2023-04-03T06:54:14;8.57;;;1.60;;
42096;SDS011;27754;45.414;11.084;2023-04-03T06:56:41;3.92;;;1.23;;
42096;SDS011;27754;45.414;11.084;2023-04-03T06:59:09;3.35;;;1.45;;
42096;SDS011;27754;45.414;11.084;2023-04-03T07:01:36;7.95;;;1.75;;
42096;SDS011;27754;45.414;11.084;2023-04-03T07:04:03;3.65;;;1.23;;
42096;SDS011;27754;45.414;11.084;2023-04-03T07:06:30;7.75;;;1.63;;
42096;SDS011;27754;45.414;11.084;2023-04-03T07:08:59;5.00;;;1.70;;
42096;SDS011;27754;45.414;11.084;2023-04-03T07:11:26;3.58;;;1.70;;
42096;SDS011;27754;45.414;11.084;2023-04-03T07:13:54;4.47;;;1.80;;
42096;SDS011;27754;45.414;11.084;2023-04-03T07:16:21;5.28;;;1.70;;
42096;SDS011;27754;45.414;11.084;2023-04-03T07:18:48;2.65;;;1.60;;
42096;SDS011;27754;45.414;11.084;2023-04-03T07:21:15;8.85;;;2.15;;
42096;SDS011;27754;45.414;11.084;2023-04-03T07:23:42;3.90;;;1.63;;
42096;SDS011;27754;45.414;11.084;2023-04-03T07:26:09;8.32;;;1.98;;
42096;SDS011;27754;45.414;11.084;2023-04-03T07:28:36;6.00;;;2.25;;
42096;SDS011;27754;45.414;11.084;2023-04-03T07:31:06;8.35;;;2.17;;
42096;SDS011;27754;45.414;11.084;2023-04-03T07:33:38;4.32;;;2.05;;
42096;SDS011;27754;45.414;11.084;2023-04-03T07:36:06;7.05;;;2.53;;
42096;SDS011;27754;45.414;11.084;2023-04-03T07:38:34;4.47;;;1.90;;
42096;SDS011;27754;45.414;11.084;2023-04-03T07:41:02;8.75;;;2.13;;
42096;SDS011;27754;45.414;11.084;2023-04-03T07:43:30;5.00;;;2.03;;
42096;SDS011;27754;45.414;11.084;2023-04-03T07:45:57;5.38;;;2.30;;
42096;SDS011;27754;45.414;11.084;2023-04-03T07:48:25;7.13;;;1.65;;
42096;SDS011;27754;45.414;11.084;2023-04-03T07:50:52;5.95;;;2.20;;
42096;SDS011;27754;45.414;11.084;2023-04-03T07:53:19;6.70;;;2.20;;
42096;SDS011;27754;45.414;11.084;2023-04-03T07:55:47;3.88;;;2.15;;
42096;SDS011;27754;45.414;11.084;2023-04-03T07:58:17;6.65;;;2.33;;
42096;SDS011;27754;45.414;11.084;2023-04-03T08:00:45;2.97;;;1.40;;
42096;SDS011;27754;45.414;11.084;2023-04-03T08:03:13;6.10;;;1.80;;
42096;SDS011;27754;45.414;11.084;2023-04-03T08:05:46;14.02;;;2.17;;
42096;SDS011;27754;45.414;11.084;2023-04-03T08:08:15;7.13;;;1.88;;
42096;SDS011;27754;45.414;11.084;2023-04-03T08:10:50;4.85;;;1.65;;
42096;SDS011;27754;45.414;11.084;2023-04-03T08:13:18;7.20;;;1.90;;
42096;SDS011;27754;45.414;11.084;2023-04-03T08:15:48;5.93;;;2.25;;
42096;SDS011;27754;45.414;11.084;2023-04-03T08:18:16;9.48;;;2.38;;
42096;SDS011;27754;45.414;11.084;2023-04-03T08:20:43;7.30;;;2.28;;
42096;SDS011;27754;45.414;11.084;2023-04-03T08:23:10;9.88;;;2.03;;
42096;SDS011;27754;45.414;11.084;2023-04-03T08:25:38;5.95;;;1.83;;
42096;SDS011;27754;45.414;11.084;2023-04-03T08:28:11;4.57;;;2.30;;
42096;SDS011;27754;45.414;11.084;2023-04-03T08:30:39;16.17;;;2.50;;
42096;SDS011;27754;45.414;11.084;2023-04-03T08:33:08;7.10;;;2.20;;
42096;SDS011;27754;45.414;11.084;2023-04-03T08:35:40;20.20;;;2.67;;
42096;SDS011;27754;45.414;11.084;2023-04-03T08:38:09;6.43;;;2.25;;
42096;SDS011;27754;45.414;11.084;2023-04-03T08:40:36;6.65;;;3.00;;
42096;SDS011;27754;45.414;11.084;2023-04-03T08:48:23;7.95;;;2.22;;
42096;SDS011;27754;45.414;11.084;2023-04-03T08:51:00;4.93;;;2.33;;
42096;SDS011;27754;45.414;11.084;2023-04-03T08:53:38;4.07;;;2.17;;
42096;SDS011;27754;45.414;11.084;2023-04-03T08:56:09;6.25;;;2.30;;
42096;SDS011;27754;45.414;11.084;2023-04-03T08:58:49;7.20;;;2.92;;
42096;SDS011;27754;45.414;11.084;2023-04-03T09:03:52;5.93;;;2.10;;
42096;SDS011;27754;45.414;11.084;2023-04-03T09:06:20;8.15;;;2.35;;
42096;SDS011;27754;45.414;11.084;2023-04-03T09:11:40;4.78;;;2.38;;
42096;SDS011;27754;45.414;11.084;2023-04-03T09:16:58;5.20;;;2.38;;
42096;SDS011;27754;45.414;11.084;2023-04-03T09:21:57;6.32;;;2.10;;
42096;SDS011;27754;45.414;11.084;2023-04-03T09:24:37;3.50;;;2.00;;
42096;SDS011;27754;45.414;11.084;2023-04-03T09:27:05;9.10;;;1.85;;
42096;SDS011;27754;45.414;11.084;2023-04-03T09:29:37;6.38;;;1.73;;
42096;SDS011;27754;45.414;11.084;2023-04-03T09:32:18;4.85;;;2.40;;
42096;SDS011;27754;45.414;11.084;2023-04-03T09:34:48;8.55;;;2.38;;
42096;SDS011;27754;45.414;11.084;2023-04-03T09:40:28;7.70;;;2.40;;
42096;SDS011;27754;45.414;11.084;2023-04-03T09:42:59;7.13;;;2.65;;
42096;SDS011;27754;45.414;11.084;2023-04-03T09:45:47;7.65;;;2.35;;
42096;SDS011;27754;45.414;11.084;2023-04-03T09:48:16;5.25;;;1.75;;
42096;SDS011;27754;45.414;11.084;2023-04-03T09:50:55;3.67;;;1.85;;
42096;SDS011;27754;45.414;11.084;2023-04-03T09:55:54;5.53;;;2.05;;
42096;SDS011;27754;45.414;11.084;2023-04-03T09:58:36;6.30;;;1.85;;
42096;SDS011;27754;45.414;11.084;2023-04-03T10:01:23;9.25;;;1.95;;
42096;SDS011;27754;45.414;11.084;2023-04-03T10:04:05;5.43;;;2.15;;
42096;SDS011;27754;45.414;11.084;2023-04-03T10:06:33;4.80;;;2.08;;
42096;SDS011;27754;45.414;11.084;2023-04-03T10:09:20;4.93;;;1.85;;
42096;SDS011;27754;45.414;11.084;2023-04-03T10:12:11;5.70;;;1.92;;
42096;SDS011;27754;45.414;11.084;2023-04-03T10:14:39;11.27;;;2.42;;
42096;SDS011;27754;45.414;11.084;2023-04-03T10:20:30;6.18;;;1.88;;
42096;SDS011;27754;45.414;11.084;2023-04-03T10:23:26;7.38;;;2.45;;
42096;SDS011;27754;45.414;11.084;2023-04-03T10:26:02;3.45;;;1.88;;
42096;SDS011;27754;45.414;11.084;2023-04-03T10:31:46;3.97;;;1.80;;
42096;SDS011;27754;45.414;11.084;2023-04-03T10:34:33;5.03;;;1.90;;
42096;SDS011;27754;45.414;11.084;2023-04-03T10:37:13;6.43;;;2.00;;
42096;SDS011;27754;45.414;11.084;2023-04-03T10:51:23;7.40;;;1.98;;
42096;SDS011;27754;45.414;11.084;2023-04-03T10:56:54;4.82;;;1.85;;
42096;SDS011;27754;45.414;11.084;2023-04-03T10:59:50;9.10;;;2.58;;
42096;SDS011;27754;45.414;11.084;2023-04-03T11:05:37;5.38;;;2.10;;
42096;SDS011;27754;45.414;11.084;2023-04-03T11:08:24;10.20;;;2.63;;
42096;SDS011;27754;45.414;11.084;2023-04-03T11:10:53;4.57;;;2.20;;
42096;SDS011;27754;45.414;11.084;2023-04-03T11:13:27;11.50;;;2.63;;
42096;SDS011;27754;45.414;11.084;2023-04-03T11:16:07;12.63;;;2.60;;
42096;SDS011;27754;45.414;11.084;2023-04-03T11:18:36;11.32;;;2.72;;
42096;SDS011;27754;45.414;11.084;2023-04-03T11:23:43;6.97;;;2.10;;
42096;SDS011;27754;45.414;11.084;2023-04-03T11:26:16;10.63;;;2.70;;
42096;SDS011;27754;45.414;11.084;2023-04-03T11:28:45;8.23;;;2.33;;
42096;SDS011;27754;45.414;11.084;2023-04-03T11:36:47;10.35;;;3.05;;
42096;SDS011;27754;45.414;11.084;2023-04-03T11:39:37;30.85;;;3.60;;
42096;SDS011;27754;45.414;11.084;2023-04-03T11:47:48;6.78;;;2.38;;
42096;SDS011;27754;45.414;11.084;2023-04-03T11:58:14;11.63;;;2.50;;
42096;SDS011;27754;45.414;11.084;2023-04-03T12:00:48;12.98;;;2.88;;
42096;SDS011;27754;45.414;11.084;2023-04-03T12:08:46;11.20;;;2.25;;
42096;SDS011;27754;45.414;11.084;2023-04-03T12:11:30;12.63;;;3.35;;
42096;SDS011;27754;45.414;11.084;2023-04-03T12:27:18;11.10;;;3.20;;
42096;SDS011;27754;45.414;11.084;2023-04-03T12:29:38;6.22;;;2.20;;
42096;SDS011;27754;45.414;11.084;2023-04-03T12:37:48;10.02;;;3.15;;
42096;SDS011;27754;45.414;11.084;2023-04-03T12:45:43;9.63;;;2.65;;
42096;SDS011;27754;45.414;11.084;2023-04-03T12:48:13;7.15;;;2.53;;
42096;SDS011;27754;45.414;11.084;2023-04-03T12:50:42;13.45;;;2.70;;
42096;SDS011;27754;45.414;11.084;2023-04-03T12:53:13;11.25;;;2.63;;
42096;SDS011;27754;45.414;11.084;2023-04-03T12:55:47;8.48;;;2.97;;
42096;SDS011;27754;45.414;11.084;2023-04-03T12:58:23;14.20;;;3.13;;
42096;SDS011;27754;45.414;11.084;2023-04-03T13:03:54;15.68;;;3.20;;
42096;SDS011;27754;45.414;11.084;2023-04-03T13:06:24;12.57;;;3.33;;
42096;SDS011;27754;45.414;11.084;2023-04-03T13:08:57;10.52;;;3.38;;
42096;SDS011;27754;45.414;11.084;2023-04-03T13:11:27;13.57;;;2.92;;
42096;SDS011;27754;45.414;11.084;2023-04-03T13:14:02;13.43;;;2.90;;
42096;SDS011;27754;45.414;11.084;2023-04-03T13:16:32;14.82;;;2.75;;
42096;SDS011;27754;45.414;11.084;2023-04-03T13:19:00;7.32;;;2.60;;
42096;SDS011;27754;45.414;11.084;2023-04-03T13:21:30;7.57;;;2.50;;
42096;SDS011;27754;45.414;11.084;2023-04-03T13:24:01;8.68;;;2.80;;
42096;SDS011;27754;45.414;11.084;2023-04-03T13:26:40;9.27;;;2.72;;
42096;SDS011;27754;45.414;11.084;2023-04-03T13:29:17;12.02;;;2.80;;
42096;SDS011;27754;45.414;11.084;2023-04-03T13:31:57;9.40;;;2.50;;
42096;SDS011;27754;45.414;11.084;2023-04-03T13:34:26;9.00;;;3.22;;
42096;SDS011;27754;45.414;11.084;2023-04-03T13:37:28;15.88;;;4.65;;
42096;SDS011;27754;45.414;11.084;2023-04-03T13:42:38;11.57;;;2.70;;
42096;SDS011;27754;45.414;11.084;2023-04-03T13:47:44;13.57;;;3.20;;
42096;SDS011;27754;45.414;11.084;2023-04-03T13:50:20;7.90;;;3.13;;
42096;SDS011;27754;45.414;11.084;2023-04-03T13:52:52;7.90;;;2.63;;
42096;SDS011;27754;45.414;11.084;2023-04-03T13:55:28;5.88;;;2.65;;
42096;SDS011;27754;45.414;11.084;2023-04-03T13:58:00;10.48;;;2.85;;
42096;SDS011;27754;45.414;11.084;2023-04-03T14:02:56;10.95;;;3.17;;
42096;SDS011;27754;45.414;11.084;2023-04-03T14:05:23;10.85;;;2.72;;
42096;SDS011;27754;45.414;11.084;2023-04-03T14:07:53;13.00;;;2.92;;
42096;SDS011;27754;45.414;11.084;2023-04-03T14:10:21;13.93;;;3.05;;
42096;SDS011;27754;45.414;11.084;2023-04-03T14:12:48;12.05;;;2.75;;
42096;SDS011;27754;45.414;11.084;2023-04-03T14:15:22;11.23;;;2.85;;
42096;SDS011;27754;45.414;11.084;2023-04-03T14:17:52;8.98;;;2.67;;
42096;SDS011;27754;45.414;11.084;2023-04-03T14:20:21;10.63;;;2.85;;
42096;SDS011;27754;45.414;11.084;2023-04-03T14:22:52;13.00;;;3.38;;
42096;SDS011;27754;45.414;11.084;2023-04-03T14:25:20;11.75;;;3.33;;
42096;SDS011;27754;45.414;11.084;2023-04-03T14:27:52;9.68;;;3.00;;
42096;SDS011;27754;45.414;11.084;2023-04-03T14:30:27;8.57;;;2.90;;
42096;SDS011;27754;45.414;11.084;2023-04-03T14:33:00;7.60;;;2.83;;
42096;SDS011;27754;45.414;11.084;2023-04-03T14:35:27;6.75;;;2.85;;
42096;SDS011;27754;45.414;11.084;2023-04-03T14:37:55;8.88;;;2.63;;
42096;SDS011;27754;45.414;11.084;2023-04-03T14:40:23;7.03;;;2.42;;
42096;SDS011;27754;45.414;11.084;2023-04-03T14:42:52;7.22;;;2.45;;
42096;SDS011;27754;45.414;11.084;2023-04-03T14:45:22;13.32;;;3.28;;
42096;SDS011;27754;45.414;11.084;2023-04-03T14:47:50;11.18;;;2.80;;
42096;SDS011;27754;45.414;11.084;2023-04-03T14:50:20;7.93;;;2.70;;
42096;SDS011;27754;45.414;11.084;2023-04-03T14:52:53;10.00;;;2.67;;
42096;SDS011;27754;45.414;11.084;2023-04-03T14:55:23;9.32;;;2.42;;
42096;SDS011;27754;45.414;11.084;2023-04-03T14:57:52;8.57;;;2.47;;
42096;SDS011;27754;45.414;11.084;2023-04-03T15:00:20;7.97;;;2.55;;
42096;SDS011;27754;45.414;11.084;2023-04-03T15:02:48;6.00;;;2.20;;
42096;SDS011;27754;45.414;11.084;2023-04-03T15:05:16;12.57;;;2.50;;
42096;SDS011;27754;45.414;11.084;2023-04-03T15:07:45;9.02;;;2.50;;
42096;SDS011;27754;45.414;11.084;2023-04-03T15:10:17;7.05;;;2.53;;
42096;SDS011;27754;45.414;11.084;2023-04-03T15:12:46;13.57;;;3.25;;
42096;SDS011;27754;45.414;11.084;2023-04-03T15:15:15;10.23;;;3.40;;
42096;SDS011;27754;45.414;11.084;2023-04-03T15:17:43;9.77;;;2.25;;
42096;SDS011;27754;45.414;11.084;2023-04-03T15:20:13;8.40;;;2.65;;
42096;SDS011;27754;45.414;11.084;2023-04-03T15:22:41;8.65;;;2.40;;
42096;SDS011;27754;45.414;11.084;2023-04-03T15:25:09;15.32;;;2.67;;
42096;SDS011;27754;45.414;11.084;2023-04-03T15:27:36;7.28;;;2.30;;
42096;SDS011;27754;45.414;11.084;2023-04-03T15:30:07;8.93;;;2.60;;
42096;SDS011;27754;45.414;11.084;2023-04-03T15:32:37;6.50;;;2.35;;
42096;SDS011;27754;45.414;11.084;2023-04-03T15:35:04;8.88;;;2.83;;
42096;SDS011;27754;45.414;11.084;2023-04-03T15:37:32;7.55;;;2.50;;
42096;SDS011;27754;45.414;11.084;2023-04-03T15:39:59;11.38;;;2.80;;
42096;SDS011;27754;45.414;11.084;2023-04-03T15:42:26;5.57;;;2.67;;
42096;SDS011;27754;45.414;11.084;2023-04-03T15:44:52;6.25;;;2.20;;
42096;SDS011;27754;45.414;11.084;2023-04-03T15:47:19;7.13;;;2.25;;
42096;SDS011;27754;45.414;11.084;2023-04-03T15:49:46;11.38;;;2.45;;
42096;SDS011;27754;45.414;11.084;2023-04-03T15:52:13;13.70;;;3.35;;
42096;SDS011;27754;45.414;11.084;2023-04-03T15:54:40;12.07;;;2.47;;
42096;SDS011;27754;45.414;11.084;2023-04-03T15:57:07;6.22;;;2.28;;
42096;SDS011;27754;45.414;11.084;2023-04-03T15:59:34;11.73;;;2.45;;
42096;SDS011;27754;45.414;11.084;2023-04-03T16:02:01;7.25;;;2.40;;
42096;SDS011;27754;45.414;11.084;2023-04-03T16:04:32;9.23;;;2.72;;
42096;SDS011;27754;45.414;11.084;2023-04-03T16:07:03;10.18;;;2.53;;
42096;SDS011;27754;45.414;11.084;2023-04-03T16:09:31;7.25;;;2.65;;
42096;SDS011;27754;45.414;11.084;2023-04-03T16:11:59;7.82;;;3.35;;
42096;SDS011;27754;45.414;11.084;2023-04-03T16:14:26;5.03;;;2.17;;
42096;SDS011;27754;45.414;11.084;2023-04-03T16:16:56;7.63;;;2.20;;
42096;SDS011;27754;45.414;11.084;2023-04-03T16:19:25;5.55;;;1.98;;
42096;SDS011;27754;45.414;11.084;2023-04-03T16:21:52;7.35;;;2.50;;
42096;SDS011;27754;45.414;11.084;2023-04-03T16:24:20;8.90;;;3.35;;
42096;SDS011;27754;45.414;11.084;2023-04-03T16:26:48;13.50;;;3.10;;
42096;SDS011;27754;45.414;11.084;2023-04-03T16:29:15;9.65;;;2.58;;
42096;SDS011;27754;45.414;11.084;2023-04-03T16:31:42;8.70;;;2.42;;
42096;SDS011;27754;45.414;11.084;2023-04-03T16:34:09;7.85;;;2.53;;
42096;SDS011;27754;45.414;11.084;2023-04-03T16:36:36;12.73;;;2.60;;
42096;SDS011;27754;45.414;11.084;2023-04-03T16:39:04;12.10;;;2.53;;
42096;SDS011;27754;45.414;11.084;2023-04-03T16:41:31;5.80;;;1.98;;
42096;SDS011;27754;45.414;11.084;2023-04-03T16:43:58;7.38;;;2.38;;
42096;SDS011;27754;45.414;11.084;2023-04-03T16:46:25;12.80;;;2.70;;
42096;SDS011;27754;45.414;11.084;2023-04-03T16:48:52;7.95;;;2.35;;
42096;SDS011;27754;45.414;11.084;2023-04-03T16:51:19;8.38;;;2.60;;